VECC/CCU METAR and TAF weather

Enter ICAO airport designator
Station Type Date Time Source
VECC METAR 2019/10/15 04:30 UTC NOAA

VECC 150430Z 35006KT 3500 HZ NSC 30/24 Q1013 NOSIG


Station Type Date Time Source
VECC Decoded METAR 2019/10/15 04:30 UTC NOAA

Calcutta / Dum Dum, India (VECC) 22-39N 088-27E 6M
Oct 15, 2019 - 12:30 AM EDT / 2019.10.15 0430 UTC
Wind: from the N (350 degrees) at 7 MPH (6 KT):0
Visibility: 2 mile(s):0
Weather: haze
Temperature: 86 F (30 C)
Heat index: 95.0 F (35.0 C):1
Dew Point: 75 F (24 C)
Relative Humidity: 70%
Pressure (altimeter): 29.91 in. Hg (1013 hPa)
ob: VECC 150430Z 35006KT 3500 HZ NSC 30/24 Q1013 NOSIG
cycle: 4

Station Type Date Time Source
VECC TAF 2019/10/14 18:54 UTC NOAA

TAF VECC 141700Z 1418/1524 00000KT 3000 HZ SCT020
BECMG 1421/1423 2000 BR
BECMG 1502/1504 01005KT 3500 HZ NSC
BECMG 1520/1522 00000KT 2000 BR FEW020

Example: see airport list